createdAt,value
2023-03-21T00:00:45.162Z,96.90
2023-03-21T00:06:02.069Z,96.80
2023-03-21T00:08:28.681Z,97.30
2023-03-21T00:10:55.308Z,97.10
2023-03-21T00:13:21.944Z,98.00
2023-03-21T00:15:57.994Z,97.60
2023-03-21T00:18:30.560Z,97.20
2023-03-21T00:21:15.812Z,96.70
2023-03-21T00:23:43.806Z,97.20
2023-03-21T00:26:10.432Z,97.50
2023-03-21T00:28:37.045Z,98.20
2023-03-21T00:31:03.685Z,98.60
2023-03-21T00:33:30.279Z,98.00
2023-03-21T00:36:03.222Z,97.20
2023-03-21T00:38:32.118Z,97.30
2023-03-21T00:41:04.666Z,97.70
2023-03-21T00:43:31.517Z,97.20
2023-03-21T00:46:00.472Z,97.60
2023-03-21T00:48:27.200Z,97.40
2023-03-21T00:50:53.809Z,97.50
2023-03-21T00:53:20.467Z,97.20
2023-03-21T00:55:47.090Z,97.10
2023-03-21T00:58:13.743Z,97.20
2023-03-21T01:00:40.455Z,98.40
2023-03-21T01:03:21.279Z,98.40
2023-03-21T01:05:50.059Z,97.80
2023-03-21T01:08:25.373Z,97.40
2023-03-21T01:10:56.037Z,97.50
2023-03-21T01:13:22.620Z,97.40
2023-03-21T01:15:49.553Z,97.20
2023-03-21T01:18:16.143Z,97.00
2023-03-21T01:20:42.709Z,97.40
2023-03-21T01:23:09.299Z,97.40
2023-03-21T01:25:35.904Z,97.10
2023-03-21T01:28:02.509Z,97.70
2023-03-21T01:30:33.930Z,98.20
2023-03-21T01:33:03.462Z,98.50
2023-03-21T01:35:37.471Z,98.40
2023-03-21T01:38:07.665Z,98.30
2023-03-21T01:40:34.259Z,97.70
2023-03-21T01:43:00.927Z,97.80
2023-03-21T01:45:27.538Z,98.20
2023-03-21T01:47:54.124Z,98.20
2023-03-21T01:50:20.696Z,98.00
2023-03-21T01:52:47.290Z,97.70
2023-03-21T01:55:13.914Z,97.40
2023-03-21T01:57:47.344Z,97.80
2023-03-21T02:00:21.687Z,97.70
2023-03-21T02:02:48.382Z,98.20
2023-03-21T02:05:14.939Z,98.50
2023-03-21T02:07:41.488Z,98.20
2023-03-21T02:10:08.145Z,98.40
2023-03-21T02:12:34.737Z,97.80
2023-03-21T02:15:01.303Z,97.50
2023-03-21T02:17:27.861Z,97.20
2023-03-21T02:19:54.501Z,96.80
2023-03-21T02:22:21.047Z,97.00
2023-03-21T02:24:54.528Z,97.40
2023-03-21T02:27:26.029Z,97.40
2023-03-21T02:29:52.617Z,97.60
2023-03-21T02:32:31.556Z,97.70
2023-03-21T02:35:03.376Z,97.60
2023-03-21T02:37:37.605Z,97.60
2023-03-21T02:40:05.157Z,97.40
2023-03-21T02:42:31.721Z,96.80
2023-03-21T02:44:58.268Z,97.00
2023-03-21T02:47:24.826Z,97.10
2023-03-21T02:49:51.421Z,97.20
2023-03-21T02:52:31.773Z,99.00
2023-03-21T02:55:04.173Z,98.90
2023-03-21T02:57:41.638Z,99.20
2023-03-21T03:00:16.130Z,98.30
2023-03-21T03:02:43.455Z,98.60
2023-03-21T03:05:20.417Z,99.90
2023-03-21T03:07:47.705Z,99.90
2023-03-21T03:10:14.299Z,99.90
2023-03-21T03:12:40.846Z,99.90
2023-03-21T03:15:07.394Z,99.90
2023-03-21T03:17:33.936Z,99.90
2023-03-21T03:20:07.184Z,99.70
2023-03-21T03:22:40.386Z,99.90
2023-03-21T03:25:18.597Z,99.90
2023-03-21T03:27:49.487Z,99.10
2023-03-21T03:30:16.053Z,99.00
2023-03-21T03:32:42.616Z,98.40
2023-03-21T03:35:09.196Z,98.70
2023-03-21T03:37:35.775Z,98.60
2023-03-21T03:40:02.325Z,99.90
2023-03-21T03:42:29.219Z,99.80
2023-03-21T03:44:55.823Z,99.00
2023-03-21T03:47:32.225Z,98.50
2023-03-21T03:50:01.401Z,98.20
2023-03-21T03:52:28.009Z,99.10
2023-03-21T03:54:54.549Z,99.50
2023-03-21T03:57:21.109Z,99.60
2023-03-21T03:59:47.661Z,99.90
2023-03-21T04:02:14.308Z,99.90
2023-03-21T04:04:40.953Z,99.90
2023-03-21T04:07:07.533Z,99.90
2023-03-21T04:09:43.696Z,99.90
2023-03-21T04:12:10.963Z,99.90
2023-03-21T04:14:44.550Z,99.90
2023-03-21T04:17:12.518Z,99.90
2023-03-21T04:19:39.109Z,99.90
2023-03-21T04:22:05.662Z,99.90
2023-03-21T04:24:32.200Z,99.90
2023-03-21T04:26:58.744Z,99.90
2023-03-21T04:29:25.306Z,99.90
2023-03-21T04:31:51.882Z,99.90
2023-03-21T04:34:18.460Z,99.90
2023-03-21T04:36:45.044Z,99.90
2023-03-21T04:39:12.981Z,99.90
2023-03-21T04:41:39.607Z,99.90
2023-03-21T04:44:06.151Z,99.90
2023-03-21T04:46:32.738Z,99.90
2023-03-21T04:48:59.292Z,99.90
2023-03-21T04:51:26.057Z,99.90
2023-03-21T04:53:52.683Z,99.90
2023-03-21T04:56:19.286Z,99.90
2023-03-21T04:58:45.871Z,99.90
2023-03-21T05:01:12.509Z,99.90
2023-03-21T05:03:39.107Z,99.90
2023-03-21T05:06:05.694Z,99.90
2023-03-21T05:08:32.318Z,99.90
2023-03-21T05:10:58.908Z,99.90
2023-03-21T05:13:25.459Z,99.90
2023-03-21T05:15:52.030Z,99.90
2023-03-21T05:18:19.670Z,99.90
2023-03-21T05:20:46.236Z,99.90
2023-03-21T05:23:12.809Z,99.90
2023-03-21T05:25:39.723Z,99.90
2023-03-21T05:28:06.462Z,99.90
2023-03-21T05:30:33.178Z,99.90
2023-03-21T05:32:59.802Z,99.90
2023-03-21T05:35:26.964Z,99.90
2023-03-21T05:37:53.605Z,99.90
2023-03-21T05:40:20.244Z,99.90
2023-03-21T05:42:46.829Z,99.90
2023-03-21T05:45:13.412Z,99.90
2023-03-21T05:47:40.023Z,99.90
2023-03-21T05:50:06.757Z,99.90
2023-03-21T05:52:33.299Z,99.90
2023-03-21T05:54:59.840Z,99.90
2023-03-21T05:57:26.388Z,99.90
2023-03-21T05:59:52.961Z,99.90
2023-03-21T06:02:19.559Z,99.90
2023-03-21T06:04:46.157Z,99.90
2023-03-21T06:07:12.734Z,99.90
2023-03-21T06:09:41.250Z,99.90
2023-03-21T06:12:07.779Z,99.90
2023-03-21T06:14:34.346Z,99.90
2023-03-21T06:17:00.900Z,99.90
2023-03-21T06:19:27.519Z,99.90
2023-03-21T06:21:54.057Z,99.90
2023-03-21T06:24:20.711Z,99.90
2023-03-21T06:26:47.271Z,99.90
2023-03-21T06:29:13.849Z,99.90
2023-03-21T06:31:40.525Z,99.90
2023-03-21T06:34:07.128Z,99.90
2023-03-21T06:36:33.707Z,99.90
2023-03-21T06:39:00.270Z,99.90
2023-03-21T06:41:26.877Z,99.90
2023-03-21T06:43:54.955Z,99.90
2023-03-21T06:46:21.554Z,99.90
2023-03-21T06:48:48.135Z,99.90
2023-03-21T06:51:14.716Z,99.90
2023-03-21T06:53:41.356Z,99.90
2023-03-21T06:56:07.963Z,99.60
2023-03-21T06:58:34.561Z,99.40
2023-03-21T07:01:01.486Z,99.40
2023-03-21T07:03:28.042Z,99.90
2023-03-21T07:05:54.654Z,99.60
2023-03-21T07:08:21.270Z,99.10
2023-03-21T07:10:47.856Z,98.90
2023-03-21T07:13:14.394Z,99.20
2023-03-21T07:15:41.109Z,99.60
2023-03-21T07:18:07.648Z,98.70
2023-03-21T07:20:34.259Z,98.00
2023-03-21T07:23:00.883Z,97.70
2023-03-21T07:25:27.482Z,97.60
2023-03-21T07:27:54.037Z,97.60
2023-03-21T07:30:20.662Z,97.40
2023-03-21T07:32:47.223Z,97.00
2023-03-21T07:35:13.915Z,97.30
2023-03-21T07:37:40.490Z,97.20
2023-03-21T07:40:07.045Z,97.00
2023-03-21T07:42:33.621Z,96.30
2023-03-21T07:45:00.202Z,96.30
2023-03-21T07:47:26.822Z,96.20
2023-03-21T07:49:53.387Z,96.50
2023-03-21T07:52:20.044Z,96.20
2023-03-21T07:54:46.630Z,95.90
2023-03-21T07:57:13.815Z,95.80
2023-03-21T07:59:40.521Z,95.40
2023-03-21T08:02:07.153Z,95.30
2023-03-21T08:04:35.878Z,94.90
2023-03-21T08:07:02.426Z,94.90
2023-03-21T08:09:30.720Z,94.60
2023-03-21T08:11:57.634Z,94.30
2023-03-21T08:14:24.208Z,94.30
2023-03-21T08:16:50.798Z,93.90
2023-03-21T08:19:17.350Z,94.20
2023-03-21T08:21:43.989Z,93.80
2023-03-21T08:24:10.584Z,93.40
2023-03-21T08:26:37.474Z,92.90
2023-03-21T08:29:04.159Z,92.80
2023-03-21T08:31:30.740Z,92.80
2023-03-21T08:33:57.339Z,92.80
2023-03-21T08:36:23.976Z,92.00
2023-03-21T08:38:50.591Z,91.70
2023-03-21T08:41:17.206Z,90.90
2023-03-21T08:43:43.934Z,91.30
2023-03-21T08:46:10.554Z,90.60
2023-03-21T08:48:37.115Z,90.20
2023-03-21T08:51:03.696Z,89.70
2023-03-21T08:53:30.280Z,89.70
2023-03-21T08:55:56.826Z,88.00
2023-03-21T08:58:23.386Z,87.20
2023-03-21T09:00:49.961Z,89.40
2023-03-21T09:03:16.587Z,85.90
2023-03-21T09:05:43.161Z,85.90
2023-03-21T09:08:09.719Z,85.80
2023-03-21T09:10:36.280Z,85.90
2023-03-21T09:13:02.827Z,84.20
2023-03-21T09:15:29.410Z,81.80
2023-03-21T09:17:55.951Z,84.60
2023-03-21T09:20:22.509Z,84.90
2023-03-21T09:22:49.048Z,83.30
2023-03-21T09:25:15.602Z,85.70
2023-03-21T09:27:45.242Z,84.50
2023-03-21T09:30:11.819Z,82.00
2023-03-21T09:32:38.409Z,81.80
2023-03-21T09:35:04.985Z,79.90
2023-03-21T09:37:31.540Z,79.00
2023-03-21T09:39:58.153Z,79.60
2023-03-21T09:42:24.770Z,79.10
2023-03-21T09:44:51.311Z,81.00
2023-03-21T09:47:17.933Z,78.60
2023-03-21T09:49:44.503Z,77.10
2023-03-21T09:52:11.170Z,77.80
2023-03-21T09:54:37.793Z,78.60
2023-03-21T09:57:04.444Z,77.90
2023-03-21T09:59:33.276Z,81.60
2023-03-21T10:02:00.289Z,82.50
2023-03-21T10:04:26.921Z,81.90
2023-03-21T10:06:53.520Z,80.70
2023-03-21T10:09:20.063Z,80.40
2023-03-21T10:11:46.662Z,76.00
2023-03-21T10:14:13.209Z,77.40
2023-03-21T10:16:39.887Z,79.00
2023-03-21T10:19:06.500Z,77.50
2023-03-21T10:22:00.133Z,78.20
2023-03-21T10:24:19.601Z,80.50
2023-03-21T10:26:46.184Z,78.80
2023-03-21T10:29:12.797Z,77.00
2023-03-21T10:31:39.522Z,77.30
2023-03-21T10:34:06.134Z,79.20
2023-03-21T10:36:32.739Z,77.50
2023-03-21T10:38:59.316Z,78.80
2023-03-21T10:41:25.896Z,77.20
2023-03-21T10:43:52.471Z,78.80
2023-03-21T10:46:19.169Z,78.30
2023-03-21T10:48:45.942Z,77.40
2023-03-21T10:51:12.627Z,79.10
2023-03-21T10:53:39.222Z,80.20
2023-03-21T10:56:05.773Z,77.80
2023-03-21T10:58:32.324Z,78.60
2023-03-21T11:00:58.991Z,78.70
2023-03-21T11:03:25.646Z,76.90
2023-03-21T11:05:52.223Z,76.20
2023-03-21T11:08:18.803Z,78.00
2023-03-21T11:10:45.353Z,76.30
2023-03-21T11:13:11.910Z,74.80
2023-03-21T11:15:38.785Z,75.60
2023-03-21T11:18:05.707Z,76.20
2023-03-21T11:20:32.270Z,75.70
2023-03-21T11:22:58.902Z,73.90
2023-03-21T11:25:26.562Z,73.20
2023-03-21T11:27:53.139Z,72.20
2023-03-21T11:30:19.682Z,72.20
2023-03-21T11:32:46.248Z,74.50
2023-03-21T11:35:12.824Z,73.60
2023-03-21T11:37:39.430Z,71.70
2023-03-21T11:40:06.030Z,72.10
2023-03-21T11:42:32.637Z,69.50
2023-03-21T11:44:59.279Z,71.50
2023-03-21T11:47:25.900Z,70.60
2023-03-21T11:49:58.438Z,72.00
2023-03-21T11:52:32.424Z,70.60
2023-03-21T11:54:59.083Z,71.30
2023-03-21T11:57:25.638Z,72.00
2023-03-21T11:59:52.179Z,72.60
2023-03-21T12:02:18.789Z,72.50
2023-03-21T12:04:45.733Z,69.70
2023-03-21T12:07:12.509Z,72.60
2023-03-21T12:09:39.086Z,70.30
2023-03-21T12:12:05.657Z,70.70
2023-03-21T12:14:32.242Z,68.70
2023-03-21T12:16:58.863Z,69.10
2023-03-21T12:19:25.589Z,68.80
2023-03-21T12:21:53.919Z,69.80
2023-03-21T12:24:21.434Z,68.10
2023-03-21T12:26:48.063Z,65.60
2023-03-21T12:29:14.671Z,67.20
2023-03-21T12:31:41.364Z,67.30
2023-03-21T12:34:07.926Z,68.30
2023-03-21T12:36:34.584Z,68.70
2023-03-21T12:39:01.159Z,70.60
2023-03-21T12:41:27.809Z,69.40
2023-03-21T12:43:55.445Z,67.20
2023-03-21T12:46:22.245Z,69.30
2023-03-21T12:48:48.872Z,68.10
2023-03-21T12:51:15.475Z,69.60
2023-03-21T12:53:42.054Z,67.90
2023-03-21T12:56:08.624Z,69.50
2023-03-21T12:58:35.221Z,68.50
2023-03-21T13:01:01.871Z,68.10
2023-03-21T13:03:39.075Z,67.80
2023-03-21T13:06:06.067Z,67.20
2023-03-21T13:08:32.649Z,66.60
2023-03-21T13:11:01.127Z,67.60
2023-03-21T13:13:27.877Z,65.40
2023-03-21T13:15:54.486Z,68.50
2023-03-21T13:18:21.119Z,68.40
2023-03-21T13:20:47.753Z,65.60
2023-03-21T13:23:14.316Z,69.10
2023-03-21T13:25:40.874Z,69.80
2023-03-21T13:28:07.460Z,68.80
2023-03-21T13:30:34.219Z,67.90
2023-03-21T13:33:00.833Z,68.30
2023-03-21T13:35:27.437Z,67.30
2023-03-21T13:37:54.079Z,67.50
2023-03-21T13:40:20.687Z,67.40
2023-03-21T13:42:47.245Z,67.90
2023-03-21T13:45:13.946Z,67.50
2023-03-21T13:47:40.625Z,66.20
2023-03-21T13:50:07.215Z,66.60
2023-03-21T13:52:33.765Z,66.10
2023-03-21T13:55:00.321Z,65.90
2023-03-21T13:57:26.956Z,65.60
2023-03-21T13:59:53.522Z,64.10
2023-03-21T14:02:20.142Z,63.70
2023-03-21T14:05:04.177Z,61.10
2023-03-21T14:07:31.303Z,62.90
2023-03-21T14:09:57.849Z,64.60
2023-03-21T14:12:24.414Z,66.30
2023-03-21T14:14:50.981Z,66.20
2023-03-21T14:17:17.557Z,64.70
2023-03-21T14:19:44.137Z,64.40
2023-03-21T14:22:10.710Z,64.50
2023-03-21T14:24:37.271Z,66.30
2023-03-21T14:27:03.807Z,64.90
2023-03-21T14:29:31.719Z,65.90
2023-03-21T14:31:58.533Z,66.50
2023-03-21T14:34:25.100Z,66.40
2023-03-21T14:36:58.072Z,65.40
2023-03-21T14:39:25.442Z,65.10
2023-03-21T14:41:51.986Z,65.50
2023-03-21T14:44:18.584Z,64.90
2023-03-21T14:46:45.220Z,66.30
2023-03-21T14:49:11.789Z,66.60
2023-03-21T14:51:38.358Z,67.60
2023-03-21T14:54:04.890Z,66.60
2023-03-21T14:56:31.489Z,66.90
2023-03-21T14:58:58.083Z,65.40
2023-03-21T15:01:24.691Z,69.30
2023-03-21T15:03:51.320Z,68.50
2023-03-21T15:06:17.885Z,67.90
2023-03-21T15:08:44.493Z,67.90
2023-03-21T15:11:11.094Z,66.90
2023-03-21T15:13:37.674Z,67.40
2023-03-21T15:16:04.256Z,67.10
2023-03-21T15:18:30.918Z,66.60
2023-03-21T15:20:57.470Z,67.50
2023-03-21T15:23:24.065Z,66.90
2023-03-21T15:25:50.686Z,67.30
2023-03-21T15:28:17.262Z,67.60
2023-03-21T15:30:43.832Z,66.70
2023-03-21T15:33:10.415Z,65.60
2023-03-21T15:35:37.711Z,66.40
2023-03-21T15:38:05.861Z,68.10
2023-03-21T15:40:33.315Z,65.10
2023-03-21T15:42:59.888Z,66.60
2023-03-21T15:45:26.481Z,66.80
2023-03-21T15:47:53.195Z,67.60
2023-03-21T15:50:19.805Z,68.30
2023-03-21T15:52:46.383Z,67.10
2023-03-21T15:55:12.949Z,65.60
2023-03-21T15:57:39.706Z,66.30
2023-03-21T16:00:06.300Z,65.50
2023-03-21T16:02:32.898Z,65.90
2023-03-21T16:04:59.469Z,65.60
2023-03-21T16:07:25.996Z,66.00
2023-03-21T16:09:52.578Z,66.90
2023-03-21T16:12:19.118Z,67.00
2023-03-21T16:14:45.813Z,66.60
2023-03-21T16:17:12.369Z,66.10
2023-03-21T16:19:38.957Z,67.10
2023-03-21T16:22:05.544Z,67.10
2023-03-21T16:24:32.097Z,66.90
2023-03-21T16:26:58.653Z,67.20
2023-03-21T16:29:25.232Z,66.30
2023-03-21T16:31:51.888Z,66.80
2023-03-21T16:34:18.476Z,67.30
2023-03-21T16:36:45.033Z,67.30
2023-03-21T16:39:11.625Z,67.40
2023-03-21T16:41:38.192Z,66.50
2023-03-21T16:44:04.753Z,66.90
2023-03-21T16:46:31.329Z,66.60
2023-03-21T16:48:58.122Z,66.60
2023-03-21T16:53:50.163Z,66.90
2023-03-21T16:56:16.729Z,66.30
2023-03-21T16:58:43.314Z,66.80
2023-03-21T17:01:10.097Z,66.80
2023-03-21T17:03:36.780Z,67.50
2023-03-21T17:06:03.385Z,67.30
2023-03-21T17:08:29.945Z,67.00
2023-03-21T17:10:56.497Z,67.30
2023-03-21T17:13:23.089Z,68.70
2023-03-21T17:15:49.678Z,67.40
2023-03-21T17:18:16.240Z,68.10
2023-03-21T17:20:42.863Z,69.10
2023-03-21T17:23:09.412Z,68.40
2023-03-21T17:25:36.037Z,68.70
2023-03-21T17:28:02.576Z,68.80
2023-03-21T17:30:29.148Z,69.00
2023-03-21T17:32:55.727Z,68.70
2023-03-21T17:35:22.293Z,69.30
2023-03-21T17:37:48.880Z,69.90
2023-03-21T17:40:15.441Z,70.50
2023-03-21T17:42:42.020Z,70.80
2023-03-21T17:45:08.580Z,71.30
2023-03-21T17:47:35.194Z,72.70
2023-03-21T17:50:01.811Z,73.00
2023-03-21T17:52:28.370Z,73.80
2023-03-21T17:54:54.964Z,74.30
2023-03-21T17:57:21.750Z,73.80
2023-03-21T17:59:48.318Z,74.70
2023-03-21T18:02:14.884Z,74.80
2023-03-21T18:04:41.585Z,75.30
2023-03-21T18:07:10.751Z,75.10
2023-03-21T18:09:40.347Z,75.90
2023-03-21T18:12:06.958Z,75.00
2023-03-21T18:14:34.843Z,74.50
2023-03-21T18:17:01.516Z,75.60
2023-03-21T18:19:28.128Z,75.90
2023-03-21T18:21:55.037Z,76.80
2023-03-21T18:24:21.650Z,77.00
2023-03-21T18:26:48.485Z,76.90
2023-03-21T18:32:07.367Z,77.80
2023-03-21T18:34:34.714Z,77.70
2023-03-21T18:37:04.041Z,76.80
2023-03-21T18:39:30.885Z,77.40
2023-03-21T18:41:57.950Z,78.30
2023-03-21T18:44:25.410Z,78.40
2023-03-21T18:46:52.260Z,79.80
2023-03-21T18:50:01.940Z,79.50
2023-03-21T18:52:05.451Z,78.60
2023-03-21T18:54:32.069Z,78.70
2023-03-21T18:57:34.974Z,78.90
2023-03-21T18:59:45.143Z,79.10
2023-03-21T19:02:11.714Z,79.50
2023-03-21T19:04:38.375Z,79.50
2023-03-21T19:07:05.076Z,78.90
2023-03-21T19:09:32.068Z,80.50
2023-03-21T19:11:58.936Z,80.70
2023-03-21T19:14:25.542Z,80.50
2023-03-21T19:19:38.784Z,81.50
2023-03-21T19:22:05.408Z,80.90
2023-03-21T19:24:31.970Z,80.80
2023-03-21T19:26:59.596Z,80.80
2023-03-21T19:29:26.191Z,81.50
2023-03-21T19:31:52.869Z,81.50
2023-03-21T19:34:19.617Z,81.30
2023-03-21T19:36:51.195Z,81.70
2023-03-21T19:39:18.690Z,81.20
2023-03-21T19:41:45.285Z,81.60
2023-03-21T19:44:11.875Z,82.00
2023-03-21T19:46:38.467Z,81.20
2023-03-21T19:49:06.328Z,82.50
2023-03-21T19:51:33.552Z,82.20
2023-03-21T19:54:00.354Z,83.10
2023-03-21T19:56:27.746Z,82.30
2023-03-21T19:58:54.539Z,82.00
2023-03-21T20:01:21.228Z,81.40
2023-03-21T20:03:47.922Z,82.70
2023-03-21T20:06:14.497Z,82.90
2023-03-21T20:11:27.645Z,83.60
2023-03-21T20:13:54.205Z,86.10
2023-03-21T20:16:20.908Z,85.40
2023-03-21T20:18:47.478Z,84.30
2023-03-21T20:21:17.942Z,84.20
2023-03-21T20:23:44.992Z,84.70
2023-03-21T20:26:11.620Z,84.50
2023-03-21T20:28:38.339Z,84.50
2023-03-21T20:31:04.979Z,84.80
2023-03-21T20:33:31.607Z,84.60
2023-03-21T20:36:32.863Z,84.10
2023-03-21T20:38:44.766Z,84.70
2023-03-21T20:41:11.313Z,85.00
2023-03-21T20:46:24.485Z,85.20
2023-03-21T20:48:51.182Z,85.00
2023-03-21T20:52:27.501Z,85.50
2023-03-21T20:54:04.289Z,85.70
2023-03-21T20:56:30.837Z,85.80
2023-03-21T20:59:12.562Z,85.80
2023-03-21T21:01:42.298Z,85.60
2023-03-21T21:04:09.578Z,85.80
2023-03-21T21:06:36.269Z,86.70
2023-03-21T21:09:02.839Z,87.30
2023-03-21T21:14:15.993Z,87.20
2023-03-21T21:16:42.621Z,87.10
2023-03-21T21:19:09.205Z,86.80
2023-03-21T21:21:35.765Z,87.80
2023-03-21T21:24:02.387Z,88.50
2023-03-21T21:26:29.098Z,90.00
2023-03-21T21:28:55.658Z,90.20
2023-03-21T21:31:22.254Z,90.40
2023-03-21T21:33:48.842Z,90.00
2023-03-21T21:36:15.406Z,90.30
2023-03-21T21:38:41.948Z,89.80
2023-03-21T21:41:08.533Z,89.10
2023-03-21T21:43:35.102Z,89.30
2023-03-21T21:46:01.702Z,89.30
2023-03-21T21:48:29.301Z,89.50
2023-03-21T21:50:55.921Z,89.50
2023-03-21T21:53:22.498Z,89.50
2023-03-21T21:55:49.067Z,90.30
2023-03-21T21:58:15.648Z,90.50
2023-03-21T22:00:42.419Z,90.40
2023-03-21T22:03:09.115Z,90.30
2023-03-21T22:05:35.708Z,90.30
2023-03-21T22:08:02.380Z,90.30
2023-03-21T22:10:28.946Z,90.30
2023-03-21T22:12:55.492Z,90.50
2023-03-21T22:15:22.115Z,90.50
2023-03-21T22:17:48.685Z,90.40
2023-03-21T22:20:15.261Z,90.20
2023-03-21T22:22:41.838Z,90.40
2023-03-21T22:25:08.438Z,90.80
2023-03-21T22:27:35.103Z,90.50
2023-03-21T22:30:01.707Z,90.40
2023-03-21T22:32:28.330Z,90.60
2023-03-21T22:34:55.011Z,90.60
2023-03-21T22:37:21.597Z,90.90
2023-03-21T22:39:48.222Z,91.10
2023-03-21T22:42:14.782Z,91.10
2023-03-21T22:44:41.356Z,91.00
2023-03-21T22:47:07.903Z,91.00
2023-03-21T22:49:34.513Z,91.30
2023-03-21T22:52:01.082Z,91.20
2023-03-21T22:54:27.717Z,91.60
2023-03-21T22:56:54.277Z,91.50
2023-03-21T22:59:20.878Z,91.80
2023-03-21T23:01:48.012Z,92.00
2023-03-21T23:04:14.648Z,91.80
2023-03-21T23:06:41.301Z,91.60
2023-03-21T23:09:07.873Z,91.60
2023-03-21T23:11:34.441Z,91.90
2023-03-21T23:14:07.783Z,92.00
2023-03-21T23:16:35.019Z,91.90
2023-03-21T23:19:01.610Z,92.20
2023-03-21T23:21:28.178Z,92.50
2023-03-21T23:23:54.773Z,92.60
2023-03-21T23:26:21.358Z,92.30
2023-03-21T23:28:47.969Z,92.00
2023-03-21T23:31:14.617Z,91.80
2023-03-21T23:33:41.209Z,92.30
2023-03-21T23:36:07.769Z,93.40
2023-03-21T23:38:34.338Z,94.30
2023-03-21T23:41:02.975Z,94.00
2023-03-21T23:43:30.739Z,94.00
2023-03-21T23:45:57.401Z,92.80
2023-03-21T23:48:24.007Z,93.80
2023-03-21T23:50:50.584Z,94.50
2023-03-21T23:53:17.181Z,94.80
2023-03-21T23:55:43.753Z,94.50
2023-03-21T23:58:10.290Z,94.40
